sensor_id;sensor_type;location;lat;lon;timestamp;pressure;altitude;pressure_sealevel;temperature;humidity
36598;BME280;22607;49.550;11.940;2023-12-22T00:01:26;95025.06;;;3.94;100.00
36598;BME280;22607;49.550;11.940;2023-12-22T00:03:52;95019.47;;;4.06;100.00
36598;BME280;22607;49.550;11.940;2023-12-22T00:06:19;95028.38;;;3.88;100.00
36598;BME280;22607;49.550;11.940;2023-12-22T00:08:45;95029.75;;;3.99;100.00
36598;BME280;22607;49.550;11.940;2023-12-22T00:11:12;95009.69;;;3.93;100.00
36598;BME280;22607;49.550;11.940;2023-12-22T00:13:38;94995.06;;;3.92;100.00
36598;BME280;22607;49.550;11.940;2023-12-22T00:16:05;94978.41;;;3.86;100.00
36598;BME280;22607;49.550;11.940;2023-12-22T00:18:32;95006.88;;;3.94;100.00
36598;BME280;22607;49.550;11.940;2023-12-22T00:20:59;95017.28;;;3.94;100.00
36598;BME280;22607;49.550;11.940;2023-12-22T00:23:25;95028.19;;;3.90;100.00
36598;BME280;22607;49.550;11.940;2023-12-22T00:25:52;95011.78;;;3.89;100.00
36598;BME280;22607;49.550;11.940;2023-12-22T00:28:18;95022.19;;;3.89;100.00
36598;BME280;22607;49.550;11.940;2023-12-22T00:30:45;95023.81;;;3.90;100.00
36598;BME280;22607;49.550;11.940;2023-12-22T00:33:11;95027.69;;;3.71;100.00
36598;BME280;22607;49.550;11.940;2023-12-22T00:35:38;95038.88;;;3.95;100.00
36598;BME280;22607;49.550;11.940;2023-12-22T00:38:05;95040.66;;;3.94;100.00
36598;BME280;22607;49.550;11.940;2023-12-22T00:40:31;95050.97;;;3.88;100.00
36598;BME280;22607;49.550;11.940;2023-12-22T00:42:59;95033.22;;;3.91;100.00
36598;BME280;22607;49.550;11.940;2023-12-22T00:45:25;95027.09;;;3.84;100.00
36598;BME280;22607;49.550;11.940;2023-12-22T00:47:53;95042.63;;;3.92;100.00
36598;BME280;22607;49.550;11.940;2023-12-22T00:50:20;95043.56;;;4.00;100.00
36598;BME280;22607;49.550;11.940;2023-12-22T00:52:46;95038.03;;;3.79;100.00
36598;BME280;22607;49.550;11.940;2023-12-22T00:55:13;95034.91;;;3.84;100.00
36598;BME280;22607;49.550;11.940;2023-12-22T00:57:40;95028.66;;;3.93;100.00
36598;BME280;22607;49.550;11.940;2023-12-22T01:00:07;95042.56;;;4.01;100.00
36598;BME280;22607;49.550;11.940;2023-12-22T01:02:38;95042.13;;;3.97;100.00
36598;BME280;22607;49.550;11.940;2023-12-22T01:05:05;95033.00;;;3.78;100.00
36598;BME280;22607;49.550;11.940;2023-12-22T01:07:32;95024.69;;;3.83;100.00
36598;BME280;22607;49.550;11.940;2023-12-22T01:09:59;95028.09;;;3.83;100.00
36598;BME280;22607;49.550;11.940;2023-12-22T01:12:28;95039.19;;;3.77;100.00
36598;BME280;22607;49.550;11.940;2023-12-22T01:14:56;95028.38;;;3.88;100.00
36598;BME280;22607;49.550;11.940;2023-12-22T01:17:23;95039.47;;;3.82;100.00
36598;BME280;22607;49.550;11.940;2023-12-22T01:19:49;95041.19;;;3.90;100.00
36598;BME280;22607;49.550;11.940;2023-12-22T01:22:17;95036.63;;;3.92;100.00
36598;BME280;22607;49.550;11.940;2023-12-22T01:24:44;95044.59;;;3.90;100.00
36598;BME280;22607;49.550;11.940;2023-12-22T01:27:12;95042.47;;;3.94;100.00
36598;BME280;22607;49.550;11.940;2023-12-22T01:29:39;95052.09;;;3.85;100.00
36598;BME280;22607;49.550;11.940;2023-12-22T01:32:06;95049.84;;;3.82;100.00
36598;BME280;22607;49.550;11.940;2023-12-22T01:34:32;95043.19;;;3.56;100.00
36598;BME280;22607;49.550;11.940;2023-12-22T01:36:59;95046.31;;;3.75;100.00
36598;BME280;22607;49.550;11.940;2023-12-22T01:39:26;95046.59;;;3.80;100.00
36598;BME280;22607;49.550;11.940;2023-12-22T01:41:52;95046.72;;;3.87;100.00
36598;BME280;22607;49.550;11.940;2023-12-22T01:44:19;95055.06;;;3.82;100.00
36598;BME280;22607;49.550;11.940;2023-12-22T01:46:46;95039.19;;;3.77;100.00
36598;BME280;22607;49.550;11.940;2023-12-22T01:49:13;95041.19;;;3.66;100.00
36598;BME280;22607;49.550;11.940;2023-12-22T01:51:40;95041.38;;;3.65;100.00
36598;BME280;22607;49.550;11.940;2023-12-22T01:54:07;95046.91;;;3.62;100.00
36598;BME280;22607;49.550;11.940;2023-12-22T01:56:34;95052.69;;;3.49;100.00
36598;BME280;22607;49.550;11.940;2023-12-22T01:59:01;95056.06;;;3.49;100.00
36598;BME280;22607;49.550;11.940;2023-12-22T02:01:28;95065.00;;;3.47;100.00
36598;BME280;22607;49.550;11.940;2023-12-22T02:03:56;95057.50;;;3.52;100.00
36598;BME280;22607;49.550;11.940;2023-12-22T02:06:23;95066.28;;;3.51;100.00
36598;BME280;22607;49.550;11.940;2023-12-22T02:08:50;95052.44;;;3.35;100.00
36598;BME280;22607;49.550;11.940;2023-12-22T02:11:17;95042.50;;;3.39;100.00
36598;BME280;22607;49.550;11.940;2023-12-22T02:13:43;95041.38;;;3.33;100.00
36598;BME280;22607;49.550;11.940;2023-12-22T02:19:27;95047.13;;;3.52;100.00
36598;BME280;22607;49.550;11.940;2023-12-22T02:22:00;95057.25;;;3.38;100.00
36598;BME280;22607;49.550;11.940;2023-12-22T02:24:29;95061.09;;;3.51;100.00
36598;BME280;22607;49.550;11.940;2023-12-22T02:27:32;95063.31;;;3.62;100.00
36598;BME280;22607;49.550;11.940;2023-12-22T02:30:29;95044.16;;;3.63;100.00
36598;BME280;22607;49.550;11.940;2023-12-22T02:32:59;95064.22;;;3.70;100.00
36598;BME280;22607;49.550;11.940;2023-12-22T02:35:28;95068.78;;;3.67;100.00
36598;BME280;22607;49.550;11.940;2023-12-22T02:37:57;95065.19;;;3.68;100.00
36598;BME280;22607;49.550;11.940;2023-12-22T02:40:25;95064.22;;;3.70;100.00
36598;BME280;22607;49.550;11.940;2023-12-22T02:42:53;95073.13;;;3.75;100.00
36598;BME280;22607;49.550;11.940;2023-12-22T02:45:20;95071.31;;;3.76;100.00
36598;BME280;22607;49.550;11.940;2023-12-22T02:47:47;95075.41;;;3.70;100.00
36598;BME280;22607;49.550;11.940;2023-12-22T02:50:16;95070.09;;;3.63;100.00
36598;BME280;22607;49.550;11.940;2023-12-22T02:52:43;95066.06;;;3.61;100.00
36598;BME280;22607;49.550;11.940;2023-12-22T02:55:09;95058.31;;;3.76;100.00
36598;BME280;22607;49.550;11.940;2023-12-22T02:57:36;95063.09;;;3.64;100.00
36598;BME280;22607;49.550;11.940;2023-12-22T03:00:03;95048.81;;;3.68;100.00
36598;BME280;22607;49.550;11.940;2023-12-22T03:02:29;95057.34;;;3.53;100.00
36598;BME280;22607;49.550;11.940;2023-12-22T03:04:56;95061.41;;;3.48;100.00
36598;BME280;22607;49.550;11.940;2023-12-22T03:07:22;95059.47;;;3.50;100.00
36598;BME280;22607;49.550;11.940;2023-12-22T03:09:50;95055.56;;;3.54;100.00
36598;BME280;22607;49.550;11.940;2023-12-22T03:12:16;95045.63;;;3.58;100.00
36598;BME280;22607;49.550;11.940;2023-12-22T03:14:43;95055.19;;;3.57;100.00
36598;BME280;22607;49.550;11.940;2023-12-22T03:17:10;95058.56;;;3.66;100.00
36598;BME280;22607;49.550;11.940;2023-12-22T03:19:37;95050.59;;;3.67;100.00
36598;BME280;22607;49.550;11.940;2023-12-22T03:22:04;95032.44;;;3.67;100.00
36598;BME280;22607;49.550;11.940;2023-12-22T03:24:30;95039.25;;;3.68;100.00
36598;BME280;22607;49.550;11.940;2023-12-22T03:26:57;95068.50;;;3.62;100.00
36598;BME280;22607;49.550;11.940;2023-12-22T03:29:23;95066.84;;;3.61;100.00
36598;BME280;22607;49.550;11.940;2023-12-22T03:31:50;95050.94;;;3.64;100.00
36598;BME280;22607;49.550;11.940;2023-12-22T03:34:17;95042.88;;;3.59;100.00
36598;BME280;22607;49.550;11.940;2023-12-22T03:36:43;95050.00;;;3.57;100.00
36598;BME280;22607;49.550;11.940;2023-12-22T03:39:15;95047.59;;;3.56;100.00
36598;BME280;22607;49.550;11.940;2023-12-22T03:41:41;95031.78;;;3.65;100.00
36598;BME280;22607;49.550;11.940;2023-12-22T03:44:08;95047.41;;;3.57;100.00
36598;BME280;22607;49.550;11.940;2023-12-22T03:46:37;95045.19;;;3.54;100.00
36598;BME280;22607;49.550;11.940;2023-12-22T03:49:03;95030.94;;;3.50;100.00
36598;BME280;22607;49.550;11.940;2023-12-22T03:51:30;95038.25;;;3.70;100.00
36598;BME280;22607;49.550;11.940;2023-12-22T03:53:58;95031.50;;;3.60;100.00
36598;BME280;22607;49.550;11.940;2023-12-22T03:56:24;95030.59;;;3.53;100.00
36598;BME280;22607;49.550;11.940;2023-12-22T03:58:51;95030.38;;;3.54;100.00
36598;BME280;22607;49.550;11.940;2023-12-22T04:01:17;95031.03;;;3.57;100.00
36598;BME280;22607;49.550;11.940;2023-12-22T04:03:44;95039.09;;;3.38;100.00
36598;BME280;22607;49.550;11.940;2023-12-22T04:06:13;95034.88;;;3.37;100.00
36598;BME280;22607;49.550;11.940;2023-12-22T04:08:39;95006.75;;;3.26;100.00
36598;BME280;22607;49.550;11.940;2023-12-22T04:11:06;95017.56;;;3.30;100.00
36598;BME280;22607;49.550;11.940;2023-12-22T04:13:32;95018.28;;;3.47;100.00
36598;BME280;22607;49.550;11.940;2023-12-22T04:15:59;95023.63;;;3.45;100.00
36598;BME280;22607;49.550;11.940;2023-12-22T04:18:26;95022.03;;;3.44;100.00
36598;BME280;22607;49.550;11.940;2023-12-22T04:20:52;95029.94;;;3.51;100.00
36598;BME280;22607;49.550;11.940;2023-12-22T04:23:21;95046.56;;;3.65;100.00
36598;BME280;22607;49.550;11.940;2023-12-22T04:25:48;95051.78;;;3.33;100.00
36598;BME280;22607;49.550;11.940;2023-12-22T04:28:15;95058.53;;;3.42;100.00
36598;BME280;22607;49.550;11.940;2023-12-22T04:30:41;95051.41;;;3.45;100.00
36598;BME280;22607;49.550;11.940;2023-12-22T04:33:08;95036.28;;;3.48;100.00
36598;BME280;22607;49.550;11.940;2023-12-22T04:35:35;95032.13;;;3.39;100.00
36598;BME280;22607;49.550;11.940;2023-12-22T04:38:01;95012.81;;;3.41;100.00
36598;BME280;22607;49.550;11.940;2023-12-22T04:40:28;95026.47;;;3.35;100.00
36598;BME280;22607;49.550;11.940;2023-12-22T04:42:55;95042.59;;;3.54;100.00
36598;BME280;22607;49.550;11.940;2023-12-22T04:45:21;95047.41;;;3.34;100.00
36598;BME280;22607;49.550;11.940;2023-12-22T04:47:48;95051.59;;;3.35;100.00
36598;BME280;22607;49.550;11.940;2023-12-22T04:50:15;95065.09;;;3.30;100.00
36598;BME280;22607;49.550;11.940;2023-12-22T04:52:42;95063.59;;;3.36;100.00
36598;BME280;22607;49.550;11.940;2023-12-22T04:55:09;95059.06;;;3.38;100.00
36598;BME280;22607;49.550;11.940;2023-12-22T04:57:36;95063.72;;;3.42;100.00
36598;BME280;22607;49.550;11.940;2023-12-22T05:00:03;95052.59;;;3.34;100.00
36598;BME280;22607;49.550;11.940;2023-12-22T05:02:29;95053.00;;;3.46;100.00
36598;BME280;22607;49.550;11.940;2023-12-22T05:04:56;95039.31;;;3.28;100.00
36598;BME280;22607;49.550;11.940;2023-12-22T05:07:23;95070.19;;;3.47;100.00
36598;BME280;22607;49.550;11.940;2023-12-22T05:09:49;95062.44;;;3.38;100.00
36598;BME280;22607;49.550;11.940;2023-12-22T05:12:18;95065.00;;;3.47;100.00
36598;BME280;22607;49.550;11.940;2023-12-22T05:14:46;95040.78;;;3.54;100.00
36598;BME280;22607;49.550;11.940;2023-12-22T05:17:12;95037.44;;;3.46;100.00
36598;BME280;22607;49.550;11.940;2023-12-22T05:19:39;95067.44;;;3.48;100.00
36598;BME280;22607;49.550;11.940;2023-12-22T05:22:05;95086.72;;;3.54;100.00
36598;BME280;22607;49.550;11.940;2023-12-22T05:24:32;95108.78;;;3.50;100.00
36598;BME280;22607;49.550;11.940;2023-12-22T05:26:58;95116.13;;;3.46;100.00
36598;BME280;22607;49.550;11.940;2023-12-22T05:29:25;95109.63;;;3.50;100.00
36598;BME280;22607;49.550;11.940;2023-12-22T05:31:51;95125.81;;;3.52;100.00
36598;BME280;22607;49.550;11.940;2023-12-22T05:34:18;95124.25;;;3.43;100.00
36598;BME280;22607;49.550;11.940;2023-12-22T05:36:44;95130.19;;;3.52;100.00
36598;BME280;22607;49.550;11.940;2023-12-22T05:39:11;95120.94;;;3.49;100.00
36598;BME280;22607;49.550;11.940;2023-12-22T05:41:38;95117.69;;;3.56;100.00
36598;BME280;22607;49.550;11.940;2023-12-22T05:44:05;95093.19;;;3.58;100.00
36598;BME280;22607;49.550;11.940;2023-12-22T05:46:37;95110.72;;;3.48;100.00
36598;BME280;22607;49.550;11.940;2023-12-22T05:49:05;95122.66;;;3.34;100.00
36598;BME280;22607;49.550;11.940;2023-12-22T05:51:39;95120.69;;;3.36;100.00
36598;BME280;22607;49.550;11.940;2023-12-22T05:54:09;95125.72;;;3.37;100.00
36598;BME280;22607;49.550;11.940;2023-12-22T05:56:43;95127.00;;;3.41;100.00
36598;BME280;22607;49.550;11.940;2023-12-22T05:59:09;95114.34;;;3.38;100.00
36598;BME280;22607;49.550;11.940;2023-12-22T06:01:36;95114.19;;;3.40;100.00
36598;BME280;22607;49.550;11.940;2023-12-22T06:04:03;95099.75;;;3.37;100.00
36598;BME280;22607;49.550;11.940;2023-12-22T06:06:29;95111.72;;;3.47;100.00
36598;BME280;22607;49.550;11.940;2023-12-22T06:08:56;95118.63;;;3.31;100.00
36598;BME280;22607;49.550;11.940;2023-12-22T06:11:23;95115.72;;;3.26;100.00
36598;BME280;22607;49.550;11.940;2023-12-22T06:13:50;95110.88;;;3.14;100.00
36598;BME280;22607;49.550;11.940;2023-12-22T06:16:16;95116.44;;;3.03;100.00
36598;BME280;22607;49.550;11.940;2023-12-22T06:18:45;95122.72;;;3.17;100.00
36598;BME280;22607;49.550;11.940;2023-12-22T06:21:11;95126.16;;;3.09;100.00
36598;BME280;22607;49.550;11.940;2023-12-22T06:23:38;95119.34;;;3.08;100.00
36598;BME280;22607;49.550;11.940;2023-12-22T06:26:08;95118.72;;;3.06;100.00
36598;BME280;22607;49.550;11.940;2023-12-22T06:28:36;95108.81;;;3.01;100.00
36598;BME280;22607;49.550;11.940;2023-12-22T06:31:08;95125.16;;;3.10;100.00
36598;BME280;22607;49.550;11.940;2023-12-22T06:33:35;95130.69;;;3.07;100.00
36598;BME280;22607;49.550;11.940;2023-12-22T06:36:02;95133.59;;;3.21;100.00
36598;BME280;22607;49.550;11.940;2023-12-22T06:38:28;95139.94;;;3.01;100.00
36598;BME280;22607;49.550;11.940;2023-12-22T06:40:55;95124.91;;;2.97;100.00
36598;BME280;22607;49.550;11.940;2023-12-22T06:43:22;95132.00;;;3.03;100.00
36598;BME280;22607;49.550;11.940;2023-12-22T06:45:49;95134.59;;;3.11;100.00
36598;BME280;22607;49.550;11.940;2023-12-22T06:48:15;95137.03;;;3.13;100.00
36598;BME280;22607;49.550;11.940;2023-12-22T06:50:42;95138.34;;;3.00;100.00
36598;BME280;22607;49.550;11.940;2023-12-22T06:53:11;95146.59;;;2.96;100.00
36598;BME280;22607;49.550;11.940;2023-12-22T06:55:51;95168.47;;;3.10;100.00
36598;BME280;22607;49.550;11.940;2023-12-22T06:58:18;95166.34;;;3.05;100.00
36598;BME280;22607;49.550;11.940;2023-12-22T07:00:47;95148.78;;;3.24;100.00
36598;BME280;22607;49.550;11.940;2023-12-22T07:03:14;95155.97;;;3.13;100.00
36598;BME280;22607;49.550;11.940;2023-12-22T07:05:43;95158.25;;;3.17;100.00
36598;BME280;22607;49.550;11.940;2023-12-22T07:08:09;95167.00;;;3.15;100.00
36598;BME280;22607;49.550;11.940;2023-12-22T07:10:36;95186.13;;;3.14;100.00
36598;BME280;22607;49.550;11.940;2023-12-22T07:13:02;95185.78;;;3.18;100.00
36598;BME280;22607;49.550;11.940;2023-12-22T07:15:31;95176.88;;;3.12;100.00
36598;BME280;22607;49.550;11.940;2023-12-22T07:17:58;95179.59;;;3.27;100.00
36598;BME280;22607;49.550;11.940;2023-12-22T07:20:25;95186.25;;;3.21;100.00
36598;BME280;22607;49.550;11.940;2023-12-22T07:22:51;95184.94;;;3.34;100.00
36598;BME280;22607;49.550;11.940;2023-12-22T07:25:21;95190.00;;;3.27;100.00
36598;BME280;22607;49.550;11.940;2023-12-22T07:27:48;95203.78;;;3.27;100.00
36598;BME280;22607;49.550;11.940;2023-12-22T07:30:16;95186.25;;;3.21;100.00
36598;BME280;22607;49.550;11.940;2023-12-22T07:32:44;95207.38;;;3.18;100.00
36598;BME280;22607;49.550;11.940;2023-12-22T07:35:11;95210.13;;;3.17;100.00
36598;BME280;22607;49.550;11.940;2023-12-22T07:37:38;95217.28;;;2.98;100.00
36598;BME280;22607;49.550;11.940;2023-12-22T07:40:06;95220.50;;;3.17;100.00
36598;BME280;22607;49.550;11.940;2023-12-22T07:42:32;95221.03;;;3.04;100.00
36598;BME280;22607;49.550;11.940;2023-12-22T07:44:59;95201.06;;;3.04;100.00
36598;BME280;22607;49.550;11.940;2023-12-22T07:47:28;95217.63;;;2.95;100.00
36598;BME280;22607;49.550;11.940;2023-12-22T07:49:55;95217.63;;;2.95;100.00
36598;BME280;22607;49.550;11.940;2023-12-22T07:52:22;95239.19;;;3.04;100.00
36598;BME280;22607;49.550;11.940;2023-12-22T07:54:48;95241.25;;;3.08;100.00
36598;BME280;22607;49.550;11.940;2023-12-22T07:57:15;95239.66;;;2.99;100.00
36598;BME280;22607;49.550;11.940;2023-12-22T07:59:42;95228.16;;;3.01;100.00
36598;BME280;22607;49.550;11.940;2023-12-22T08:02:10;95241.28;;;3.00;100.00
36598;BME280;22607;49.550;11.940;2023-12-22T08:04:36;95239.03;;;2.97;100.00
36598;BME280;22607;49.550;11.940;2023-12-22T08:07:03;95241.94;;;3.02;100.00
36598;BME280;22607;49.550;11.940;2023-12-22T08:09:30;95242.41;;;3.06;100.00
36598;BME280;22607;49.550;11.940;2023-12-22T08:11:56;95268.19;;;3.07;100.00
36598;BME280;22607;49.550;11.940;2023-12-22T08:14:23;95246.78;;;3.13;100.00
36598;BME280;22607;49.550;11.940;2023-12-22T08:16:50;95263.16;;;3.14;100.00
36598;BME280;22607;49.550;11.940;2023-12-22T08:19:16;95259.72;;;3.22;100.00
36598;BME280;22607;49.550;11.940;2023-12-22T08:21:44;95275.94;;;3.32;100.00
36598;BME280;22607;49.550;11.940;2023-12-22T08:24:13;95273.69;;;3.21;100.00
36598;BME280;22607;49.550;11.940;2023-12-22T08:26:49;95268.97;;;3.41;100.00
36598;BME280;22607;49.550;11.940;2023-12-22T08:29:16;95262.63;;;3.44;100.00
36598;BME280;22607;49.550;11.940;2023-12-22T08:31:43;95277.66;;;3.57;100.00
36598;BME280;22607;49.550;11.940;2023-12-22T08:34:11;95270.19;;;3.53;100.00
36598;BME280;22607;49.550;11.940;2023-12-22T08:36:37;95268.44;;;3.54;100.00
36598;BME280;22607;49.550;11.940;2023-12-22T08:39:05;95276.13;;;3.79;100.00
36598;BME280;22607;49.550;11.940;2023-12-22T08:41:32;95292.31;;;3.89;100.00
36598;BME280;22607;49.550;11.940;2023-12-22T08:44:05;95301.75;;;3.90;100.00
36598;BME280;22607;49.550;11.940;2023-12-22T08:46:33;95305.31;;;3.89;100.00
36598;BME280;22607;49.550;11.940;2023-12-22T08:49:00;95318.25;;;4.06;100.00
36598;BME280;22607;49.550;11.940;2023-12-22T08:51:29;95295.03;;;4.04;100.00
36598;BME280;22607;49.550;11.940;2023-12-22T08:53:55;95296.19;;;4.02;100.00
36598;BME280;22607;49.550;11.940;2023-12-22T08:56:23;95313.06;;;4.06;100.00
36598;BME280;22607;49.550;11.940;2023-12-22T08:58:53;95291.28;;;4.07;100.00
36598;BME280;22607;49.550;11.940;2023-12-22T09:01:22;95312.19;;;4.14;100.00
36598;BME280;22607;49.550;11.940;2023-12-22T09:03:49;95316.91;;;4.18;100.00
36598;BME280;22607;49.550;11.940;2023-12-22T09:06:17;95322.22;;;4.25;100.00
36598;BME280;22607;49.550;11.940;2023-12-22T09:08:45;95329.34;;;4.31;100.00
36598;BME280;22607;49.550;11.940;2023-12-22T09:11:17;95333.09;;;4.29;100.00
36598;BME280;22607;49.550;11.940;2023-12-22T09:13:44;95337.00;;;4.25;100.00
36598;BME280;22607;49.550;11.940;2023-12-22T09:16:11;95320.06;;;4.37;100.00
36598;BME280;22607;49.550;11.940;2023-12-22T09:18:41;95318.84;;;4.48;100.00
36598;BME280;22607;49.550;11.940;2023-12-22T09:21:09;95315.00;;;4.44;100.00
36598;BME280;22607;49.550;11.940;2023-12-22T09:23:35;95325.53;;;4.51;100.00
36598;BME280;22607;49.550;11.940;2023-12-22T09:26:02;95333.63;;;4.56;100.00
36598;BME280;22607;49.550;11.940;2023-12-22T09:28:30;95328.06;;;4.59;100.00
36598;BME280;22607;49.550;11.940;2023-12-22T09:30:57;95319.09;;;4.62;100.00
36598;BME280;22607;49.550;11.940;2023-12-22T09:33:26;95309.56;;;4.54;100.00
36598;BME280;22607;49.550;11.940;2023-12-22T09:35:53;95324.00;;;4.56;100.00
36598;BME280;22607;49.550;11.940;2023-12-22T09:38:20;95325.28;;;4.60;100.00
36598;BME280;22607;49.550;11.940;2023-12-22T09:40:50;95306.22;;;4.68;100.00
36598;BME280;22607;49.550;11.940;2023-12-22T09:43:19;95327.38;;;4.89;100.00
36598;BME280;22607;49.550;11.940;2023-12-22T09:45:46;95331.56;;;4.75;100.00
36598;BME280;22607;49.550;11.940;2023-12-22T09:48:13;95317.69;;;4.82;100.00
36598;BME280;22607;49.550;11.940;2023-12-22T09:50:45;95324.00;;;4.88;100.00
36598;BME280;22607;49.550;11.940;2023-12-22T09:53:13;95334.72;;;4.85;100.00
36598;BME280;22607;49.550;11.940;2023-12-22T09:55:43;95335.72;;;4.84;100.00
36598;BME280;22607;49.550;11.940;2023-12-22T09:58:14;95335.19;;;4.89;100.00
36598;BME280;22607;49.550;11.940;2023-12-22T10:00:43;95310.97;;;4.88;100.00
36598;BME280;22607;49.550;11.940;2023-12-22T10:03:11;95333.56;;;4.88;100.00
36598;BME280;22607;49.550;11.940;2023-12-22T10:05:42;95316.59;;;5.00;100.00
36598;BME280;22607;49.550;11.940;2023-12-22T10:08:09;95302.63;;;4.93;100.00
36598;BME280;22607;49.550;11.940;2023-12-22T10:10:38;95304.91;;;4.96;100.00
36598;BME280;22607;49.550;11.940;2023-12-22T10:13:07;95320.09;;;4.84;100.00
36598;BME280;22607;49.550;11.940;2023-12-22T10:15:40;95338.84;;;5.03;100.00
36598;BME280;22607;49.550;11.940;2023-12-22T10:18:09;95348.88;;;5.06;100.00
36598;BME280;22607;49.550;11.940;2023-12-22T10:20:36;95339.41;;;4.90;100.00
36598;BME280;22607;49.550;11.940;2023-12-22T10:23:04;95325.53;;;4.97;100.00
36598;BME280;22607;49.550;11.940;2023-12-22T10:25:31;95331.19;;;5.01;100.00
36598;BME280;22607;49.550;11.940;2023-12-22T10:27:58;95326.00;;;5.01;100.00
36598;BME280;22607;49.550;11.940;2023-12-22T10:30:26;95323.91;;;4.96;100.00
36598;BME280;22607;49.550;11.940;2023-12-22T10:32:54;95334.06;;;4.83;100.00
36598;BME280;22607;49.550;11.940;2023-12-22T10:35:21;95330.03;;;5.04;100.00
36598;BME280;22607;49.550;11.940;2023-12-22T10:37:47;95327.28;;;5.05;100.00
36598;BME280;22607;49.550;11.940;2023-12-22T10:40:15;95315.69;;;4.84;100.00
36598;BME280;22607;49.550;11.940;2023-12-22T10:42:41;95313.59;;;4.88;100.00
36598;BME280;22607;49.550;11.940;2023-12-22T10:45:09;95314.47;;;4.95;100.00
36598;BME280;22607;49.550;11.940;2023-12-22T10:47:38;95316.19;;;4.88;100.00
36598;BME280;22607;49.550;11.940;2023-12-22T10:50:05;95325.44;;;4.91;100.00
36598;BME280;22607;49.550;11.940;2023-12-22T10:52:33;95310.97;;;4.88;100.00
36598;BME280;22607;49.550;11.940;2023-12-22T10:55:00;95305.41;;;4.91;100.00
36598;BME280;22607;49.550;11.940;2023-12-22T10:57:27;95316.63;;;4.92;100.00
36598;BME280;22607;49.550;11.940;2023-12-22T10:59:56;95314.88;;;5.07;100.00
36598;BME280;22607;49.550;11.940;2023-12-22T11:02:27;95324.91;;;4.95;100.00
36598;BME280;22607;49.550;11.940;2023-12-22T11:05:01;95312.22;;;4.92;100.00
36598;BME280;22607;49.550;11.940;2023-12-22T11:07:29;95309.41;;;5.02;100.00
36598;BME280;22607;49.550;11.940;2023-12-22T11:10:05;95296.44;;;5.17;100.00
36598;BME280;22607;49.550;11.940;2023-12-22T11:12:38;95301.41;;;5.04;100.00
36598;BME280;22607;49.550;11.940;2023-12-22T11:15:06;95274.75;;;5.02;100.00
36598;BME280;22607;49.550;11.940;2023-12-22T11:17:36;95265.59;;;5.06;100.00
36598;BME280;22607;49.550;11.940;2023-12-22T11:20:10;95269.41;;;4.80;100.00
36598;BME280;22607;49.550;11.940;2023-12-22T11:22:38;95257.56;;;4.77;100.00
36598;BME280;22607;49.550;11.940;2023-12-22T11:25:06;95252.53;;;4.76;100.00
36598;BME280;22607;49.550;11.940;2023-12-22T11:27:36;95253.03;;;4.71;100.00
36598;BME280;22607;49.550;11.940;2023-12-22T11:30:05;95234.09;;;4.62;100.00
36598;BME280;22607;49.550;11.940;2023-12-22T11:32:35;95220.81;;;4.57;100.00
36598;BME280;22607;49.550;11.940;2023-12-22T11:35:03;95226.59;;;4.67;100.00
36598;BME280;22607;49.550;11.940;2023-12-22T11:37:32;95237.84;;;4.59;100.00
36598;BME280;22607;49.550;11.940;2023-12-22T11:40:02;95238.72;;;4.52;100.00
36598;BME280;22607;49.550;11.940;2023-12-22T11:42:33;95235.25;;;4.59;100.00
36598;BME280;22607;49.550;11.940;2023-12-22T11:45:04;95235.31;;;4.51;100.00
36598;BME280;22607;49.550;11.940;2023-12-22T11:47:31;95227.84;;;4.48;100.00
36598;BME280;22607;49.550;11.940;2023-12-22T11:49:58;95217.97;;;4.43;100.00
36598;BME280;22607;49.550;11.940;2023-12-22T11:52:26;95207.81;;;4.57;100.00
36598;BME280;22607;49.550;11.940;2023-12-22T11:54:56;95200.94;;;4.41;100.00
36598;BME280;22607;49.550;11.940;2023-12-22T11:57:38;95208.75;;;4.41;100.00
36598;BME280;22607;49.550;11.940;2023-12-22T12:02:58;95214.69;;;4.50;100.00
36598;BME280;22607;49.550;11.940;2023-12-22T12:05:24;95199.78;;;4.43;100.00
36598;BME280;22607;49.550;11.940;2023-12-22T12:07:51;95187.63;;;4.59;100.00
36598;BME280;22607;49.550;11.940;2023-12-22T12:10:51;95193.59;;;4.44;100.00
36598;BME280;22607;49.550;11.940;2023-12-22T12:13:23;95189.97;;;4.30;100.00
36598;BME280;22607;49.550;11.940;2023-12-22T12:15:55;95164.28;;;4.36;100.00
36598;BME280;22607;49.550;11.940;2023-12-22T12:18:22;95165.38;;;4.41;100.00
36598;BME280;22607;49.550;11.940;2023-12-22T12:20:52;95158.13;;;4.52;100.00
36598;BME280;22607;49.550;11.940;2023-12-22T12:23:20;95153.72;;;4.52;100.00
36598;BME280;22607;49.550;11.940;2023-12-22T12:25:49;95156.44;;;4.59;100.00
36598;BME280;22607;49.550;11.940;2023-12-22T12:28:16;95153.22;;;4.57;100.00
36598;BME280;22607;49.550;11.940;2023-12-22T12:30:47;95143.81;;;4.56;100.00
36598;BME280;22607;49.550;11.940;2023-12-22T12:33:14;95153.22;;;4.57;100.00
36598;BME280;22607;49.550;11.940;2023-12-22T12:35:42;95140.97;;;4.42;100.00
36598;BME280;22607;49.550;11.940;2023-12-22T12:38:17;95147.84;;;4.73;100.00
36598;BME280;22607;49.550;11.940;2023-12-22T12:40:45;95132.44;;;4.87;100.00
36598;BME280;22607;49.550;11.940;2023-12-22T12:43:17;95138.53;;;4.79;100.00
36598;BME280;22607;49.550;11.940;2023-12-22T12:45:44;95133.41;;;4.71;100.00
36598;BME280;22607;49.550;11.940;2023-12-22T12:48:15;95130.09;;;4.62;100.00
36598;BME280;22607;49.550;11.940;2023-12-22T12:50:43;95110.91;;;4.78;100.00
36598;BME280;22607;49.550;11.940;2023-12-22T12:53:11;95097.97;;;4.55;100.00
36598;BME280;22607;49.550;11.940;2023-12-22T12:55:38;95104.19;;;4.69;100.00
36598;BME280;22607;49.550;11.940;2023-12-22T12:58:04;95102.28;;;4.78;100.00
36598;BME280;22607;49.550;11.940;2023-12-22T13:00:32;95096.38;;;4.69;100.00